createdAt,value
2023-04-02T00:00:20.470Z,0.80
2023-04-02T00:03:03.744Z,1.13
2023-04-02T00:05:55.899Z,0.30
2023-04-02T00:08:30.959Z,0.45
2023-04-02T00:11:03.317Z,0.40
2023-04-02T00:13:37.677Z,1.27
2023-04-02T00:16:13.443Z,0.63
2023-04-02T00:18:49.822Z,1.73
2023-04-02T00:21:25.913Z,0.95
2023-04-02T00:23:58.090Z,1.20
2023-04-02T00:26:36.877Z,1.58
2023-04-02T00:29:08.799Z,3.03
2023-04-02T00:31:43.184Z,1.35
2023-04-02T00:34:21.726Z,0.60
2023-04-02T00:36:52.003Z,1.30
2023-04-02T00:39:25.923Z,0.70
2023-04-02T00:42:05.129Z,0.77
2023-04-02T00:44:42.775Z,3.42
2023-04-02T00:47:20.502Z,2.40
2023-04-02T00:49:58.606Z,1.25
2023-04-02T00:52:52.447Z,2.03
2023-04-02T00:55:26.770Z,0.98
2023-04-02T00:57:59.554Z,1.10
2023-04-02T01:00:34.067Z,2.05
2023-04-02T01:03:38.898Z,0.82
2023-04-02T01:06:12.847Z,1.73
2023-04-02T01:09:01.681Z,1.00
2023-04-02T01:12:30.129Z,0.68
2023-04-02T01:15:13.291Z,1.00
2023-04-02T01:18:18.169Z,0.98
2023-04-02T01:21:21.825Z,2.90
2023-04-02T01:24:04.019Z,1.80
2023-04-02T01:26:49.247Z,0.40
2023-04-02T01:29:29.826Z,1.95
2023-04-02T01:32:03.707Z,0.57
2023-04-02T01:34:34.454Z,0.98
2023-04-02T01:37:24.592Z,1.50
2023-04-02T01:40:18.222Z,0.70
2023-04-02T01:42:57.874Z,3.05
2023-04-02T01:45:29.517Z,1.17
2023-04-02T01:47:59.675Z,0.43
2023-04-02T01:50:37.996Z,1.40
2023-04-02T01:53:11.912Z,2.47
2023-04-02T01:55:45.924Z,0.93
2023-04-02T01:58:20.609Z,0.60
2023-04-02T02:00:57.173Z,1.27
2023-04-02T02:03:27.617Z,1.25
2023-04-02T02:05:58.353Z,1.33
2023-04-02T02:08:41.716Z,1.00
2023-04-02T02:11:20.216Z,1.35
2023-04-02T02:13:55.814Z,0.90
2023-04-02T02:16:28.809Z,1.05
2023-04-02T02:19:03.735Z,1.75
2023-04-02T02:21:43.217Z,0.80
2023-04-02T02:24:22.307Z,1.48
2023-04-02T02:27:05.189Z,0.88
2023-04-02T02:29:39.790Z,0.63
2023-04-02T02:32:13.983Z,0.38
2023-04-02T02:34:53.699Z,0.80
2023-04-02T02:37:30.725Z,1.83
2023-04-02T02:40:05.489Z,1.15
2023-04-02T02:42:40.046Z,1.30
2023-04-02T02:45:19.527Z,2.95
2023-04-02T02:47:54.052Z,1.92
2023-04-02T02:50:30.769Z,1.23
2023-04-02T02:53:18.098Z,1.33
2023-04-02T02:55:50.771Z,1.05
2023-04-02T02:58:31.352Z,2.05
2023-04-02T03:01:20.479Z,1.33
2023-04-02T03:03:55.596Z,0.95
2023-04-02T03:06:27.298Z,1.67
2023-04-02T03:09:14.046Z,1.60
2023-04-02T03:11:53.537Z,1.05
2023-04-02T03:14:35.078Z,1.13
2023-04-02T03:17:14.776Z,2.83
2023-04-02T03:19:53.601Z,1.52
2023-04-02T03:22:32.041Z,0.32
2023-04-02T03:25:07.241Z,0.73
2023-04-02T03:27:44.762Z,1.80
2023-04-02T03:30:38.517Z,1.00
2023-04-02T03:33:17.353Z,1.08
2023-04-02T03:35:59.395Z,0.82
2023-04-02T03:38:33.940Z,1.60
2023-04-02T03:41:12.821Z,0.52
2023-04-02T03:43:48.143Z,1.35
2023-04-02T03:46:28.638Z,0.88
2023-04-02T03:49:03.597Z,1.23
2023-04-02T03:51:39.082Z,2.53
2023-04-02T03:54:16.082Z,0.65
2023-04-02T03:56:47.490Z,1.83
2023-04-02T03:59:36.740Z,0.65
2023-04-02T04:02:28.920Z,1.23
2023-04-02T04:04:59.204Z,0.52
2023-04-02T04:07:38.131Z,0.63
2023-04-02T04:10:09.808Z,1.48
2023-04-02T04:12:47.357Z,1.35
2023-04-02T04:15:28.127Z,0.52
2023-04-02T04:18:10.446Z,1.50
2023-04-02T04:20:56.276Z,1.20
2023-04-02T04:23:35.963Z,1.27
2023-04-02T04:26:21.066Z,3.65
2023-04-02T04:29:09.707Z,0.88
2023-04-02T04:31:49.540Z,0.65
2023-04-02T04:34:26.485Z,4.03
2023-04-02T04:37:01.825Z,0.90
2023-04-02T04:39:45.445Z,1.00
2023-04-02T04:42:21.794Z,1.00
2023-04-02T04:45:01.938Z,1.40
2023-04-02T04:47:36.952Z,2.05
2023-04-02T04:50:15.474Z,1.13
2023-04-02T04:52:45.517Z,2.55
2023-04-02T04:55:31.213Z,1.33
2023-04-02T04:58:16.748Z,1.08
2023-04-02T05:01:01.827Z,2.15
2023-04-02T05:03:38.569Z,0.50
2023-04-02T05:06:19.376Z,2.20
2023-04-02T05:08:52.878Z,2.70
2023-04-02T05:11:33.550Z,1.20
2023-04-02T05:14:17.832Z,1.17
2023-04-02T05:16:55.823Z,1.02
2023-04-02T05:19:35.632Z,2.33
2023-04-02T05:22:21.856Z,0.77
2023-04-02T05:25:02.550Z,1.13
2023-04-02T05:27:42.931Z,0.70
2023-04-02T05:30:46.792Z,0.88
2023-04-02T05:33:28.148Z,1.13
2023-04-02T05:36:05.124Z,1.08
2023-04-02T05:38:47.590Z,2.20
2023-04-02T05:41:28.344Z,2.72
2023-04-02T05:44:09.678Z,1.38
2023-04-02T05:46:51.575Z,0.47
2023-04-02T05:49:30.075Z,1.90
2023-04-02T05:52:05.241Z,1.50
2023-04-02T05:54:46.199Z,1.25
2023-04-02T05:57:35.829Z,1.55
2023-04-02T06:00:22.085Z,1.20
2023-04-02T06:03:01.935Z,0.68
2023-04-02T06:05:40.875Z,2.20
2023-04-02T06:08:16.970Z,0.68
2023-04-02T06:10:54.566Z,1.95
2023-04-02T06:13:28.950Z,1.85
2023-04-02T06:16:00.742Z,2.10
2023-04-02T06:18:36.679Z,2.90
2023-04-02T06:21:07.270Z,1.92
2023-04-02T06:23:44.215Z,0.95
2023-04-02T06:26:23.611Z,1.33
2023-04-02T06:29:02.341Z,4.35
2023-04-02T06:31:42.145Z,1.05
2023-04-02T06:34:19.143Z,1.40
2023-04-02T06:37:00.663Z,1.07
2023-04-02T06:39:32.106Z,1.42
2023-04-02T06:42:13.229Z,2.95
2023-04-02T06:44:59.939Z,0.80
2023-04-02T06:47:50.413Z,1.80
2023-04-02T06:50:42.663Z,1.27
2023-04-02T06:53:24.473Z,1.17
2023-04-02T06:56:02.196Z,1.83
2023-04-02T06:58:33.776Z,1.67
2023-04-02T07:01:04.340Z,1.25
2023-04-02T07:03:46.701Z,2.40
2023-04-02T07:06:25.256Z,4.13
2023-04-02T07:08:57.155Z,1.80
2023-04-02T07:11:27.703Z,1.45
2023-04-02T07:14:00.640Z,2.78
2023-04-02T07:16:34.337Z,3.97
2023-04-02T07:19:05.603Z,1.15
2023-04-02T07:21:37.796Z,1.50
2023-04-02T07:24:09.076Z,1.85
2023-04-02T07:26:39.001Z,2.92
2023-04-02T07:29:09.686Z,1.77
2023-04-02T07:31:40.782Z,4.30
2023-04-02T07:34:11.992Z,2.10
2023-04-02T07:36:41.802Z,2.97
2023-04-02T07:39:12.200Z,2.50
2023-04-02T07:41:57.387Z,2.13
2023-04-02T07:44:26.932Z,3.58
2023-04-02T07:46:56.869Z,1.48
2023-04-02T07:49:27.683Z,2.17
2023-04-02T07:51:57.110Z,2.35
2023-04-02T07:54:27.214Z,2.08
2023-04-02T07:56:56.679Z,2.75
2023-04-02T07:59:26.225Z,1.67
2023-04-02T08:01:55.715Z,2.97
2023-04-02T08:04:26.776Z,2.20
2023-04-02T08:06:56.155Z,2.15
2023-04-02T08:09:25.617Z,2.67
2023-04-02T08:11:55.029Z,2.85
2023-04-02T08:14:24.414Z,2.75
2023-04-02T08:16:56.549Z,1.50
2023-04-02T08:19:28.196Z,1.42
2023-04-02T08:21:57.745Z,2.90
2023-04-02T08:24:27.146Z,1.10
2023-04-02T08:26:56.608Z,1.65
2023-04-02T08:29:29.165Z,3.78
2023-04-02T08:31:58.679Z,2.47
2023-04-02T08:34:30.575Z,3.17
2023-04-02T08:37:00.621Z,1.35
2023-04-02T08:39:33.143Z,1.60
2023-04-02T08:42:17.950Z,3.17
2023-04-02T08:45:21.155Z,4.20
2023-04-02T08:47:56.669Z,1.17
2023-04-02T08:50:33.535Z,1.15
2023-04-02T08:53:08.006Z,2.63
2023-04-02T08:55:44.296Z,3.03
2023-04-02T08:58:30.755Z,1.67
2023-04-02T09:01:04.915Z,1.40
2023-04-02T09:03:41.431Z,1.73
2023-04-02T09:06:18.545Z,1.33
2023-04-02T09:08:52.160Z,3.92
2023-04-02T09:11:29.157Z,2.10
2023-04-02T09:14:01.960Z,3.00
2023-04-02T09:16:45.845Z,2.20
2023-04-02T09:19:23.620Z,1.92
2023-04-02T09:22:20.780Z,1.80
2023-04-02T09:24:53.798Z,2.63
2023-04-02T09:27:27.016Z,3.05
2023-04-02T09:32:51.105Z,4.18
2023-04-02T09:35:26.818Z,3.53
2023-04-02T09:38:22.586Z,3.70
2023-04-02T09:41:02.148Z,2.92
2023-04-02T09:43:33.478Z,1.85
2023-04-02T09:46:19.243Z,1.85
2023-04-02T09:48:58.174Z,1.40
2023-04-02T09:51:34.736Z,1.92
2023-04-02T09:54:16.299Z,1.98
2023-04-02T09:57:02.906Z,0.82
2023-04-02T09:59:32.355Z,2.25
2023-04-02T10:02:04.931Z,0.98
2023-04-02T10:04:44.102Z,2.80
2023-04-02T10:07:35.432Z,2.85
2023-04-02T10:10:23.488Z,1.17
2023-04-02T10:13:02.551Z,0.75
2023-04-02T10:15:39.030Z,1.83
2023-04-02T10:18:20.823Z,0.55
2023-04-02T10:20:53.929Z,1.80
2023-04-02T10:26:13.422Z,1.10
2023-04-02T10:29:09.383Z,2.15
2023-04-02T10:31:53.457Z,1.27
2023-04-02T10:34:31.971Z,1.10
2023-04-02T10:37:21.757Z,1.25
2023-04-02T10:39:58.171Z,1.85
2023-04-02T10:42:38.775Z,0.98
2023-04-02T10:45:29.245Z,1.15
2023-04-02T10:48:09.445Z,3.03
2023-04-02T10:50:51.702Z,2.35
2023-04-02T10:53:26.119Z,1.48
2023-04-02T10:56:03.545Z,1.67
2023-04-02T10:58:42.592Z,0.43
2023-04-02T11:01:20.997Z,0.77
2023-04-02T11:03:57.892Z,1.40
2023-04-02T11:06:34.055Z,1.30
2023-04-02T11:09:08.760Z,0.93
2023-04-02T11:11:44.402Z,1.98
2023-04-02T11:14:19.908Z,1.38
2023-04-02T11:16:51.442Z,1.13
2023-04-02T11:19:29.407Z,1.60
2023-04-02T11:22:01.497Z,1.38
2023-04-02T11:24:45.362Z,0.93
2023-04-02T11:27:28.363Z,3.75
2023-04-02T11:30:08.933Z,1.35
2023-04-02T11:32:42.648Z,1.35
2023-04-02T11:35:38.457Z,1.23
2023-04-02T11:38:53.026Z,2.45
2023-04-02T11:42:06.158Z,1.33
2023-04-02T11:44:35.843Z,1.63
2023-04-02T11:47:22.078Z,0.90
2023-04-02T11:50:02.619Z,1.05
2023-04-02T11:52:52.092Z,0.98
2023-04-02T11:55:28.104Z,0.45
2023-04-02T11:58:33.635Z,0.90
2023-04-02T12:01:43.961Z,1.38
2023-04-02T12:04:44.445Z,0.75
2023-04-02T12:08:05.649Z,1.48
2023-04-02T12:10:53.869Z,0.40
2023-04-02T12:13:51.473Z,0.98
2023-04-02T12:16:22.968Z,1.65
2023-04-02T12:18:55.091Z,0.60
2023-04-02T12:21:29.969Z,0.63
2023-04-02T12:24:00.691Z,1.52
2023-04-02T12:26:37.674Z,1.15
2023-04-02T12:29:36.271Z,0.47
2023-04-02T12:32:21.191Z,2.00
2023-04-02T12:34:52.739Z,1.77
2023-04-02T12:37:28.105Z,0.85
2023-04-02T12:40:01.147Z,1.52
2023-04-02T12:42:34.986Z,1.00
2023-04-02T12:45:08.832Z,1.40
2023-04-02T12:47:38.322Z,0.45
2023-04-02T12:50:15.749Z,0.77
2023-04-02T12:52:49.311Z,1.13
2023-04-02T12:55:24.324Z,1.15
2023-04-02T12:57:58.121Z,1.20
2023-04-02T13:00:37.077Z,0.75
2023-04-02T13:03:22.478Z,1.13
2023-04-02T13:05:56.424Z,2.35
2023-04-02T13:08:33.139Z,1.55
2023-04-02T13:11:05.331Z,1.55
2023-04-02T13:13:38.070Z,2.43
2023-04-02T13:16:30.830Z,0.55
2023-04-02T13:19:26.372Z,1.07
2023-04-02T13:21:58.711Z,1.27
2023-04-02T13:24:32.613Z,2.03
2023-04-02T13:27:04.615Z,2.13
2023-04-02T13:29:36.085Z,2.00
2023-04-02T13:32:11.440Z,2.88
2023-04-02T13:34:40.864Z,2.20
2023-04-02T13:37:13.202Z,1.50
2023-04-02T13:39:44.062Z,1.35
2023-04-02T13:42:13.876Z,1.00
2023-04-02T13:44:43.401Z,1.40
2023-04-02T13:47:16.226Z,0.98
2023-04-02T13:49:45.639Z,0.60
2023-04-02T13:52:17.155Z,2.17
2023-04-02T13:54:50.788Z,0.70
2023-04-02T13:57:20.595Z,1.60
2023-04-02T13:59:50.156Z,1.35
2023-04-02T14:02:23.461Z,2.83
2023-04-02T14:05:04.999Z,2.47
2023-04-02T14:07:53.013Z,1.48
2023-04-02T14:10:43.859Z,1.80
2023-04-02T14:13:40.164Z,1.67
2023-04-02T14:16:28.977Z,2.17
2023-04-02T14:19:28.180Z,1.95
2023-04-02T14:22:13.350Z,2.03
2023-04-02T14:24:54.700Z,2.35
2023-04-02T14:27:40.483Z,2.30
2023-04-02T14:30:23.704Z,1.90
2023-04-02T14:33:05.614Z,2.28
2023-04-02T14:35:39.350Z,2.92
2023-04-02T14:38:18.816Z,2.85
2023-04-02T14:40:51.872Z,1.98
2023-04-02T14:43:29.194Z,1.00
2023-04-02T14:46:02.695Z,0.60
2023-04-02T14:48:47.446Z,0.45
2023-04-02T14:51:26.409Z,0.70
2023-04-02T14:54:07.184Z,1.10
2023-04-02T14:56:46.940Z,0.95
2023-04-02T14:59:30.829Z,1.65
2023-04-02T15:02:08.819Z,0.70
2023-04-02T15:04:44.586Z,2.53
2023-04-02T15:07:23.643Z,2.10
2023-04-02T15:10:12.390Z,2.05
2023-04-02T15:12:45.061Z,1.25
2023-04-02T15:15:40.029Z,1.52
2023-04-02T15:18:18.115Z,2.97
2023-04-02T15:21:00.598Z,1.38
2023-04-02T15:23:52.630Z,0.98
2023-04-02T15:26:30.959Z,1.08
2023-04-02T15:29:27.744Z,3.25
2023-04-02T15:32:19.243Z,0.98
2023-04-02T15:34:57.256Z,0.57
2023-04-02T15:37:34.732Z,1.35
2023-04-02T15:40:26.214Z,2.95
2023-04-02T15:43:07.894Z,1.17
2023-04-02T15:45:57.197Z,3.22
2023-04-02T15:49:11.483Z,1.55
2023-04-02T15:52:05.473Z,1.75
2023-04-02T15:55:09.712Z,1.73
2023-04-02T15:58:25.703Z,1.38
2023-04-02T16:01:09.620Z,1.35
2023-04-02T16:04:09.900Z,1.52
2023-04-02T16:07:09.186Z,2.40
2023-04-02T16:09:51.543Z,4.28
2023-04-02T16:12:22.678Z,2.40
2023-04-02T16:14:52.156Z,1.70
2023-04-02T16:17:32.212Z,3.38
2023-04-02T16:20:19.986Z,2.72
2023-04-02T16:23:00.807Z,2.00
2023-04-02T16:25:41.175Z,2.50
2023-04-02T16:28:23.909Z,2.90
2023-04-02T16:31:04.066Z,2.60
2023-04-02T16:34:00.243Z,3.00
2023-04-02T16:36:52.906Z,2.50
2023-04-02T16:39:37.346Z,2.95
2023-04-02T16:42:24.314Z,3.42
2023-04-02T16:45:14.479Z,3.58
2023-04-02T16:48:06.025Z,3.05
2023-04-02T16:50:52.311Z,3.10
2023-04-02T16:53:41.352Z,3.05
2023-04-02T16:56:51.465Z,3.95
2023-04-02T16:59:32.834Z,3.70
2023-04-02T17:02:18.546Z,4.05
2023-04-02T17:05:00.439Z,3.58
2023-04-02T17:07:41.668Z,3.28
2023-04-02T17:10:31.585Z,4.05
2023-04-02T17:13:19.224Z,3.85
2023-04-02T17:15:56.638Z,3.45
2023-04-02T17:18:26.517Z,4.45
2023-04-02T17:21:00.023Z,4.47
2023-04-02T17:23:30.868Z,4.25
2023-04-02T17:26:08.796Z,5.88
2023-04-02T17:28:40.256Z,4.30
2023-04-02T17:31:18.379Z,4.82
2023-04-02T17:33:47.912Z,4.30
2023-04-02T17:36:39.247Z,6.93
2023-04-02T17:39:23.386Z,4.60
2023-04-02T17:42:05.886Z,4.60
2023-04-02T17:45:04.022Z,4.10
2023-04-02T17:47:48.722Z,4.57
2023-04-02T17:50:58.556Z,7.60
2023-04-02T17:53:41.002Z,4.80
2023-04-02T17:56:43.064Z,5.28
2023-04-02T17:59:39.736Z,5.30
2023-04-02T18:02:43.206Z,4.47
2023-04-02T18:05:26.797Z,4.32
2023-04-02T18:10:48.315Z,4.80
2023-04-02T18:13:34.858Z,6.50
2023-04-02T18:16:37.786Z,6.03
2023-04-02T18:19:19.405Z,5.40
2023-04-02T18:21:59.740Z,6.47
2023-04-02T18:24:46.491Z,5.68
2023-04-02T18:27:41.612Z,7.18
2023-04-02T18:30:23.624Z,7.95
2023-04-02T18:33:29.696Z,7.18
2023-04-02T18:36:11.572Z,6.22
2023-04-02T18:38:49.058Z,6.13
2023-04-02T18:41:47.283Z,6.95
2023-04-02T18:44:41.068Z,6.72
2023-04-02T18:49:57.404Z,6.50
2023-04-02T18:52:27.062Z,6.55
2023-04-02T18:55:06.153Z,6.63
2023-04-02T18:57:40.337Z,6.03
2023-04-02T19:00:27.171Z,5.70
2023-04-02T19:03:03.701Z,5.30
2023-04-02T19:05:44.641Z,5.35
2023-04-02T19:08:21.631Z,6.57
2023-04-02T19:10:58.966Z,5.68
2023-04-02T19:13:28.640Z,5.07
2023-04-02T19:16:39.119Z,5.88
2023-04-02T19:19:20.333Z,5.10
2023-04-02T19:22:11.975Z,5.78
2023-04-02T19:25:31.275Z,5.78
2023-04-02T19:28:14.165Z,6.63
2023-04-02T19:31:35.682Z,4.88
2023-04-02T19:34:20.660Z,5.25
2023-04-02T19:36:57.042Z,5.50
2023-04-02T19:40:24.452Z,5.70
2023-04-02T19:42:55.332Z,6.03
2023-04-02T19:45:38.631Z,5.30
2023-04-02T19:48:15.943Z,6.10
2023-04-02T19:50:46.063Z,5.47
2023-04-02T19:53:18.186Z,6.10
2023-04-02T19:55:48.128Z,6.05
2023-04-02T19:58:28.253Z,5.60
2023-04-02T20:00:58.183Z,5.85
2023-04-02T20:03:28.016Z,5.88
2023-04-02T20:05:59.404Z,6.05
2023-04-02T20:08:31.213Z,5.57
2023-04-02T20:11:01.592Z,5.68
2023-04-02T20:13:31.100Z,5.57
2023-04-02T20:16:01.696Z,5.35
2023-04-02T20:18:31.995Z,5.45
2023-04-02T20:21:06.595Z,6.00
2023-04-02T20:23:38.229Z,6.70
2023-04-02T20:26:08.768Z,6.68
2023-04-02T20:28:38.290Z,6.72
2023-04-02T20:31:11.704Z,5.43
2023-04-02T20:33:42.017Z,5.97
2023-04-02T20:36:14.632Z,5.53
2023-04-02T20:38:46.446Z,5.88
2023-04-02T20:41:16.591Z,6.55
2023-04-02T20:43:46.372Z,8.10
2023-04-02T20:46:15.959Z,6.68
2023-04-02T20:48:45.703Z,5.47
2023-04-02T20:51:17.348Z,5.70
2023-04-02T20:53:48.297Z,7.97
2023-04-02T20:56:19.515Z,6.15
2023-04-02T20:58:48.887Z,5.72
2023-04-02T21:01:22.096Z,5.18
2023-04-02T21:06:28.250Z,6.90
2023-04-02T21:08:59.455Z,6.72
2023-04-02T21:11:29.029Z,7.28
2023-04-02T21:13:58.497Z,6.90
2023-04-02T21:16:31.756Z,6.88
2023-04-02T21:19:04.949Z,6.35
2023-04-02T21:21:35.739Z,7.35
2023-04-02T21:24:10.019Z,6.50
2023-04-02T21:26:41.929Z,7.22
2023-04-02T21:29:13.405Z,7.50
2023-04-02T21:31:44.111Z,6.00
2023-04-02T21:34:17.743Z,9.43
2023-04-02T21:36:50.355Z,8.50
2023-04-02T21:39:24.179Z,4.50
2023-04-02T21:41:54.857Z,6.90
2023-04-02T21:44:25.205Z,7.00
2023-04-02T21:46:54.985Z,7.35
2023-04-02T21:49:26.078Z,5.95
2023-04-02T21:51:55.801Z,6.03
2023-04-02T21:54:26.673Z,7.47
2023-04-02T21:56:56.133Z,7.40
2023-04-02T21:59:25.885Z,8.27
2023-04-02T22:01:55.468Z,5.82
2023-04-02T22:04:28.272Z,7.43
2023-04-02T22:06:57.714Z,5.97
2023-04-02T22:09:29.563Z,6.72
2023-04-02T22:11:59.962Z,7.88
2023-04-02T22:14:30.712Z,6.70
2023-04-02T22:17:00.511Z,6.28
2023-04-02T22:19:30.045Z,7.80
2023-04-02T22:21:59.481Z,8.48
2023-04-02T22:24:30.559Z,7.40
2023-04-02T22:27:00.017Z,6.55
2023-04-02T22:29:29.487Z,7.63
2023-04-02T22:31:58.904Z,5.95
2023-04-02T22:34:28.883Z,8.65
2023-04-02T22:36:58.363Z,8.13
2023-04-02T22:39:29.221Z,9.23
2023-04-02T22:41:58.654Z,8.00
2023-04-02T22:44:28.074Z,9.65
2023-04-02T22:46:57.456Z,9.68
2023-04-02T22:49:26.833Z,9.15
2023-04-02T22:51:56.207Z,9.70
2023-04-02T22:54:25.687Z,7.90
2023-04-02T22:56:56.550Z,8.35
2023-04-02T22:59:25.949Z,9.35
2023-04-02T23:01:55.479Z,10.55
2023-04-02T23:04:25.062Z,9.27
2023-04-02T23:06:54.508Z,8.23
2023-04-02T23:09:23.917Z,10.85
2023-04-02T23:11:53.404Z,12.20
2023-04-02T23:14:24.222Z,7.88
2023-04-02T23:16:53.631Z,7.97
2023-04-02T23:19:23.010Z,9.90
2023-04-02T23:21:52.587Z,12.30
2023-04-02T23:24:22.007Z,10.80
2023-04-02T23:26:51.436Z,10.07
2023-04-02T23:29:20.886Z,8.18
2023-04-02T23:31:51.949Z,11.18
2023-04-02T23:34:21.514Z,9.63
2023-04-02T23:36:50.929Z,8.68
2023-04-02T23:39:20.580Z,15.88
2023-04-02T23:41:49.988Z,10.27
2023-04-02T23:44:19.432Z,9.98
2023-04-02T23:46:48.876Z,11.15
2023-04-02T23:49:20.277Z,8.90
2023-04-02T23:51:49.799Z,10.40
2023-04-02T23:54:19.209Z,9.00
2023-04-02T23:56:48.988Z,10.07
2023-04-02T23:59:18.532Z,8.43
